Time;durP1;ratioP1;P1;durP2;ratioP2;P2;SDS_P1;SDS_P2;PMS_P1;PMS_P2;Temp;Humidity;BMP_temperature;BMP_pressure;BME280_temperature;BME280_humidity;BME280_pressure;Samples;Min_cycle;Max_cycle;Signal;HPM_P1;HPM_P2
2021/07/28 00:00:03;;;;;;;10.90;6.40;;;27.30;99.90;;;;;;6127591;23;20698;-67
2021/07/28 00:02:28;;;;;;;9.40;6.50;;;27.20;99.90;;;;;;6127242;23;20436;-64
2021/07/28 00:04:54;;;;;;;10.93;5.20;;;27.20;99.90;;;;;;6127732;23;20859;-67
2021/07/28 00:07:19;;;;;;;12.23;6.63;;;27.20;99.90;;;;;;6127076;23;20312;-64
2021/07/28 00:09:45;;;;;;;8.40;6.70;;;27.20;99.90;;;;;;6125836;23;20160;-64
2021/07/28 00:12:10;;;;;;;7.03;5.97;;;27.10;99.90;;;;;;6127034;23;20235;-63
2021/07/28 00:14:36;;;;;;;11.97;6.83;;;27.10;99.90;;;;;;6127621;23;20152;-68
2021/07/28 00:17:03;;;;;;;12.13;6.03;;;27.10;99.90;;;;;;6125436;23;20180;-67
2021/07/28 00:19:33;;;;;;;13.23;6.23;;;27.00;99.90;;;;;;6127623;23;20429;-65
2021/07/28 00:24:43;;;;;;;11.13;6.33;;;27.00;99.90;;;;;;6127631;23;20393;-68
2021/07/28 00:27:08;;;;;;;8.97;5.93;;;26.90;99.90;;;;;;6126880;23;20422;-68
2021/07/28 00:29:37;;;;;;;11.10;6.97;;;26.90;99.90;;;;;;6127530;23;20164;-67
2021/07/28 00:32:03;;;;;;;14.30;7.30;;;26.90;99.90;;;;;;6125455;23;20191;-63
2021/07/28 00:34:29;;;;;;;15.57;6.27;;;26.80;99.90;;;;;;6127437;23;20385;-64
2021/07/28 00:36:54;;;;;;;10.53;6.27;;;26.80;99.90;;;;;;6126984;23;20182;-67
2021/07/28 00:39:20;;;;;;;10.90;5.97;;;26.70;99.90;;;;;;6127183;23;20191;-63
2021/07/28 00:41:46;;;;;;;6.93;5.87;;;26.70;99.90;;;;;;6126878;23;20171;-67
2021/07/28 00:44:12;;;;;;;9.63;7.33;;;26.70;99.90;;;;;;6125435;23;20191;-64
2021/07/28 00:46:38;;;;;;;13.10;7.27;;;26.60;99.90;;;;;;6126944;23;20167;-63
2021/07/28 00:49:05;;;;;;;9.13;5.80;;;26.60;99.90;;;;;;6127167;23;20445;-67
2021/07/28 00:51:30;;;;;;;9.93;6.50;;;26.50;99.90;;;;;;6126833;23;20410;-67
2021/07/28 00:53:57;;;;;;;16.73;6.57;;;26.50;99.90;;;;;;6127045;23;20440;-67
2021/07/28 00:56:24;;;;;;;10.00;6.57;;;26.40;99.90;;;;;;6126932;23;20290;-67
2021/07/28 00:58:50;;;;;;;12.03;6.60;;;26.30;99.90;;;;;;6127136;23;20397;-68
2021/07/28 01:01:16;;;;;;;11.43;6.30;;;26.30;99.90;;;;;;6126917;23;20390;-67
2021/07/28 01:03:42;;;;;;;11.27;7.57;;;26.30;99.90;;;;;;6126844;23;20880;-67
2021/07/28 01:06:12;;;;;;;11.37;6.27;;;26.30;99.90;;;;;;6126847;23;20227;-67
2021/07/28 01:08:37;;;;;;;9.23;5.80;;;26.20;99.90;;;;;;6126912;23;20445;-67
2021/07/28 01:11:04;;;;;;;8.53;5.83;;;26.20;99.90;;;;;;6126009;23;20392;-64
2021/07/28 01:13:31;;;;;;;9.43;5.97;;;26.20;99.90;;;;;;6129104;23;20254;-67
2021/07/28 01:16:21;;;;;;;7.40;5.90;;;26.10;99.90;;;;;;6127083;23;20390;-64
2021/07/28 01:18:47;;;;;;;7.23;5.67;;;26.10;99.90;;;;;;6135112;23;20547;-64
2021/07/28 01:21:13;;;;;;;10.33;6.03;;;26.10;99.90;;;;;;6128805;23;20393;-67
2021/07/28 01:23:40;;;;;;;7.83;6.00;;;26.10;99.90;;;;;;6127208;23;20429;-67
2021/07/28 01:26:07;;;;;;;11.13;6.17;;;26.00;99.90;;;;;;6128648;23;20435;-64
2021/07/28 01:28:34;;;;;;;9.07;6.40;;;26.00;99.90;;;;;;6127030;23;20457;-67
2021/07/28 01:31:10;;;;;;;9.50;6.00;;;26.00;99.90;;;;;;6128591;23;20387;-64
2021/07/28 01:33:43;;;;;;;6.97;5.70;;;26.00;99.90;;;;;;6128841;23;20393;-63
2021/07/28 01:36:12;;;;;;;11.63;6.50;;;25.90;99.90;;;;;;6127112;23;20479;-67
2021/07/28 01:38:38;;;;;;;12.00;7.17;;;25.90;99.90;;;;;;6128597;23;20429;-63
2021/07/28 01:41:05;;;;;;;15.63;6.97;;;25.90;99.90;;;;;;6128649;23;20366;-64
2021/07/28 01:43:32;;;;;;;10.67;7.03;;;25.90;99.90;;;;;;6128691;23;20449;-64
2021/07/28 01:45:59;;;;;;;10.23;6.30;;;25.80;99.90;;;;;;6126863;23;20421;-63
2021/07/28 01:48:26;;;;;;;10.57;6.13;;;25.80;99.90;;;;;;6128516;23;20445;-69
2021/07/28 01:50:54;;;;;;;11.70;6.97;;;25.80;99.90;;;;;;6126959;23;20718;-67
2021/07/28 01:53:20;;;;;;;8.20;7.20;;;25.80;99.90;;;;;;6128443;23;20397;-68
2021/07/28 01:55:45;;;;;;;12.17;6.13;;;25.80;99.90;;;;;;6128471;23;20445;-64
2021/07/28 01:58:12;;;;;;;16.30;8.03;;;25.80;99.90;;;;;;6128194;23;20397;-67
2021/07/28 02:00:39;;;;;;;11.90;6.60;;;25.80;99.90;;;;;;6128468;23;20192;-68
2021/07/28 02:03:04;;;;;;;10.63;6.70;;;25.80;99.90;;;;;;6128211;23;20389;-67
2021/07/28 02:05:39;;;;;;;8.73;6.17;;;25.80;99.90;;;;;;6128462;23;20870;-65
2021/07/28 02:08:07;;;;;;;12.20;6.37;;;25.80;99.90;;;;;;6128190;23;20201;-64
2021/07/28 02:10:45;;;;;;;9.93;6.53;;;25.80;99.90;;;;;;6128349;23;20378;-67
2021/07/28 02:13:11;;;;;;;9.80;5.97;;;25.80;99.90;;;;;;6128099;23;20441;-63
2021/07/28 02:15:37;;;;;;;11.33;7.30;;;25.70;99.90;;;;;;6128261;23;20374;-64
2021/07/28 02:18:04;;;;;;;11.20;6.90;;;25.70;99.90;;;;;;6128147;23;20693;-67
2021/07/28 02:20:31;;;;;;;13.70;7.50;;;25.70;99.90;;;;;;6128200;23;20385;-67
2021/07/28 02:22:57;;;;;;;11.73;7.47;;;25.60;99.90;;;;;;6128012;23;20404;-67
2021/07/28 02:25:23;;;;;;;10.83;7.77;;;25.60;99.90;;;;;;6128799;23;20393;-64
2021/07/28 02:27:49;;;;;;;10.13;6.87;;;25.60;99.90;;;;;;6127956;23;20584;-64
2021/07/28 02:30:16;;;;;;;11.53;6.10;;;25.50;99.90;;;;;;6128722;23;20172;-63
2021/07/28 02:32:43;;;;;;;10.13;6.97;;;25.50;99.90;;;;;;6128083;23;20401;-68
2021/07/28 02:35:09;;;;;;;11.83;7.10;;;25.40;99.90;;;;;;6126762;23;20485;-64
2021/07/28 02:37:35;;;;;;;13.77;7.43;;;25.40;99.90;;;;;;6127652;23;20404;-67
2021/07/28 02:40:02;;;;;;;14.03;7.40;;;25.40;99.90;;;;;;6128599;23;20386;-67
2021/07/28 02:42:28;;;;;;;11.10;6.30;;;25.40;99.90;;;;;;6127936;23;20389;-63
2021/07/28 02:44:53;;;;;;;11.27;6.97;;;25.40;99.90;;;;;;6128509;23;20393;-67
2021/07/28 02:47:19;;;;;;;12.57;6.60;;;25.30;99.90;;;;;;6127805;23;20205;-67
2021/07/28 02:49:44;;;;;;;10.27;6.70;;;25.30;99.90;;;;;;6128495;23;20529;-67
2021/07/28 02:52:10;;;;;;;13.87;7.27;;;25.30;99.90;;;;;;6127762;23;20183;-64
2021/07/28 02:54:36;;;;;;;10.73;6.53;;;25.30;99.90;;;;;;6128370;23;20164;-67
2021/07/28 02:57:02;;;;;;;10.23;7.40;;;25.30;99.90;;;;;;6127917;23;20226;-64
2021/07/28 02:59:28;;;;;;;11.30;6.90;;;25.20;99.90;;;;;;6128276;23;20843;-64
2021/07/28 03:01:53;;;;;;;8.23;6.53;;;25.20;99.90;;;;;;6126183;23;20187;-64
2021/07/28 03:04:20;;;;;;;10.33;6.70;;;25.20;99.90;;;;;;6128154;23;20188;-67
2021/07/28 03:06:46;;;;;;;13.20;6.80;;;25.20;99.90;;;;;;6127801;23;20635;-67
2021/07/28 03:09:12;;;;;;;14.87;8.00;;;25.20;99.90;;;;;;6126388;23;20458;-64
2021/07/28 03:11:38;;;;;;;8.67;6.40;;;25.20;99.90;;;;;;6126116;23;20440;-64
2021/07/28 03:14:03;;;;;;;11.27;7.10;;;25.20;99.90;;;;;;6127642;23;20401;-63
2021/07/28 03:16:29;;;;;;;9.27;6.77;;;25.20;99.90;;;;;;6126109;23;20632;-63
2021/07/28 03:18:55;;;;;;;12.40;6.77;;;25.10;99.90;;;;;;6127518;23;20169;-63
2021/07/28 03:21:20;;;;;;;11.73;7.13;;;25.10;99.90;;;;;;6127579;23;20181;-63
2021/07/28 03:23:46;;;;;;;9.73;7.53;;;25.10;99.90;;;;;;6127732;23;20600;-64
2021/07/28 03:26:12;;;;;;;13.10;7.63;;;25.10;99.90;;;;;;6127474;23;20201;-63
2021/07/28 03:28:37;;;;;;;14.50;7.83;;;25.10;99.90;;;;;;6127647;23;20229;-67
2021/07/28 03:31:03;;;;;;;11.33;6.87;;;25.10;99.90;;;;;;6127437;23;20177;-63
2021/07/28 03:33:29;;;;;;;12.33;7.27;;;25.10;99.90;;;;;;6127337;23;20173;-63
2021/07/28 03:35:55;;;;;;;13.37;7.73;;;25.10;99.90;;;;;;6127481;23;20155;-64
2021/07/28 03:38:20;;;;;;;10.30;7.47;;;25.10;99.90;;;;;;6127068;23;20222;-63
2021/07/28 03:40:46;;;;;;;9.10;6.63;;;25.00;99.90;;;;;;6127448;23;20386;-63
2021/07/28 03:43:13;;;;;;;8.57;6.90;;;25.00;99.90;;;;;;6127180;23;20202;-65
2021/07/28 03:45:39;;;;;;;10.03;6.93;;;25.00;99.90;;;;;;6127452;23;20185;-67
2021/07/28 03:48:04;;;;;;;11.50;7.30;;;25.00;99.90;;;;;;6127009;23;20440;-64
2021/07/28 03:50:30;;;;;;;10.20;7.20;;;25.00;99.90;;;;;;6127378;23;20591;-67
2021/07/28 03:52:57;;;;;;;8.80;7.37;;;25.00;99.90;;;;;;6127238;23;20177;-63
2021/07/28 03:55:23;;;;;;;10.20;7.73;;;25.00;99.90;;;;;;6128069;23;20154;-67
2021/07/28 03:57:48;;;;;;;11.87;7.07;;;25.00;99.90;;;;;;6127364;23;20898;-63
2021/07/28 04:00:14;;;;;;;12.00;7.60;;;25.00;99.90;;;;;;6127810;23;20385;-66
2021/07/28 04:02:40;;;;;;;11.70;8.67;;;24.90;99.90;;;;;;6125772;23;20187;-63
2021/07/28 04:05:06;;;;;;;10.93;7.43;;;25.00;99.90;;;;;;6127590;23;20408;-67
2021/07/28 04:07:32;;;;;;;11.30;8.63;;;24.90;99.90;;;;;;6125490;23;20198;-64
2021/07/28 04:09:57;;;;;;;13.57;8.40;;;25.00;99.90;;;;;;6127643;23;20385;-63
2021/07/28 04:12:23;;;;;;;17.47;7.90;;;24.90;99.90;;;;;;6127094;23;20542;-67
2021/07/28 04:14:48;;;;;;;11.90;8.30;;;25.00;99.90;;;;;;6127663;23;20154;-63
2021/07/28 04:17:14;;;;;;;12.03;8.20;;;25.00;99.90;;;;;;6126978;23;20183;-67
2021/07/28 04:19:43;;;;;;;13.23;8.43;;;25.00;99.90;;;;;;6127565;23;20155;-64
2021/07/28 04:22:09;;;;;;;12.27;8.80;;;25.00;99.90;;;;;;6126991;23;20230;-67
2021/07/28 04:24:34;;;;;;;14.97;8.77;;;25.00;99.90;;;;;;6127524;23;20400;-64
2021/07/28 04:27:00;;;;;;;14.33;8.57;;;24.90;99.90;;;;;;6126807;23;20184;-64
2021/07/28 04:29:25;;;;;;;16.80;8.50;;;24.90;99.90;;;;;;6127442;23;20159;-64
2021/07/28 04:31:51;;;;;;;20.13;10.50;;;24.90;99.90;;;;;;6126878;23;20236;-63
2021/07/28 04:34:16;;;;;;;16.73;9.10;;;24.90;99.90;;;;;;6127353;23;20162;-67
2021/07/28 04:36:42;;;;;;;14.70;8.93;;;24.90;99.90;;;;;;6125448;23;20252;-67
2021/07/28 04:39:07;;;;;;;13.80;8.80;;;24.90;99.90;;;;;;6125292;23;20221;-63
2021/07/28 04:41:33;;;;;;;10.23;8.70;;;24.90;99.90;;;;;;6125245;23;20179;-63
2021/07/28 04:43:58;;;;;;;12.57;8.77;;;24.90;99.90;;;;;;6126768;23;20213;-65
2021/07/28 04:46:24;;;;;;;10.10;8.03;;;24.90;99.90;;;;;;6126391;23;20209;-67
2021/07/28 04:48:50;;;;;;;16.23;9.93;;;24.90;99.90;;;;;;6127099;23;20684;-64
2021/07/28 04:51:26;;;;;;;17.53;10.67;;;25.00;99.90;;;;;;6126621;23;20799;-64
2021/07/28 04:53:52;;;;;;;14.13;10.40;;;25.00;99.90;;;;;;6125495;23;20171;-63
2021/07/28 04:56:17;;;;;;;18.23;9.87;;;25.00;99.90;;;;;;6125910;23;20406;-69
2021/07/28 04:58:43;;;;;;;15.80;9.87;;;25.00;99.90;;;;;;6125289;23;20414;-67
2021/07/28 05:01:24;;;;;;;12.47;10.77;;;25.00;99.90;;;;;;6126507;23;20175;-67
2021/07/28 05:03:51;;;;;;;13.20;9.90;;;25.00;99.90;;;;;;6125140;23;20527;-63
2021/07/28 05:06:16;;;;;;;13.77;10.30;;;25.10;99.90;;;;;;6126721;23;20408;-67
2021/07/28 05:08:42;;;;;;;18.60;10.83;;;25.10;99.90;;;;;;6126680;23;20906;-67
2021/07/28 05:11:08;;;;;;;17.03;10.60;;;25.10;99.90;;;;;;6125150;23;20758;-67
2021/07/28 05:13:33;;;;;;;17.77;9.93;;;25.10;99.90;;;;;;6124856;23;20142;-67
2021/07/28 05:15:59;;;;;;;15.23;10.40;;;25.20;99.90;;;;;;6125061;23;20171;-67
2021/07/28 05:18:25;;;;;;;14.33;12.00;;;25.10;99.90;;;;;;6123896;23;20220;-64
2021/07/28 05:20:50;;;;;;;18.07;11.87;;;25.20;99.90;;;;;;6124819;23;20167;-66
2021/07/28 05:23:16;;;;;;;12.60;11.23;;;25.20;99.90;;;;;;6122846;23;20200;-63
2021/07/28 05:25:41;;;;;;;14.43;11.13;;;25.20;99.90;;;;;;6124720;23;20512;-67
2021/07/28 05:28:07;;;;;;;18.37;11.80;;;25.30;99.90;;;;;;6124102;23;20644;-67
2021/07/28 05:30:33;;;;;;;15.43;11.53;;;25.30;99.90;;;;;;6126543;23;20172;-63
2021/07/28 05:32:59;;;;;;;13.87;11.47;;;25.30;99.90;;;;;;6126315;23;20622;-63
2021/07/28 05:35:24;;;;;;;17.70;11.63;;;25.40;99.90;;;;;;6126181;23;20424;-63
2021/07/28 05:37:59;;;;;;;19.37;12.43;;;25.40;99.90;;;;;;6126341;23;20206;-67
2021/07/28 05:40:25;;;;;;;17.30;12.03;;;25.50;99.90;;;;;;6126439;23;20270;-63
2021/07/28 05:42:51;;;;;;;16.27;11.83;;;25.50;99.90;;;;;;6125661;23;20436;-67
2021/07/28 05:45:17;;;;;;;13.03;11.67;;;25.60;99.90;;;;;;6124047;23;20393;-64
2021/07/28 05:47:45;;;;;;;14.70;12.70;;;25.70;99.90;;;;;;6123321;23;20500;-67
2021/07/28 05:50:12;;;;;;;18.97;11.33;;;25.80;99.90;;;;;;6125108;23;20227;-67
2021/07/28 05:52:37;;;;;;;16.50;11.50;;;25.90;99.90;;;;;;6123125;23;20420;-64
2021/07/28 05:55:03;;;;;;;14.57;12.20;;;26.00;99.90;;;;;;6123358;23;20405;-67
2021/07/28 05:57:32;;;;;;;14.17;11.83;;;26.10;99.90;;;;;;6124838;23;20234;-67
2021/07/28 05:59:57;;;;;;;18.23;13.13;;;26.20;99.90;;;;;;6126716;23;20369;-63
2021/07/28 06:02:23;;;;;;;17.10;13.00;;;26.30;99.90;;;;;;6127787;23;20421;-63
2021/07/28 06:05:01;;;;;;;18.00;12.50;;;26.30;99.90;;;;;;6128411;23;20444;-64
2021/07/28 06:07:26;;;;;;;18.50;12.90;;;26.40;99.90;;;;;;6124845;23;20206;-64
2021/07/28 06:09:52;;;;;;;17.77;14.30;;;26.50;99.90;;;;;;6126393;23;20394;-69
2021/07/28 06:12:18;;;;;;;19.87;13.10;;;26.50;99.90;;;;;;6124594;23;20546;-70
2021/07/28 06:14:45;;;;;;;16.33;12.30;;;26.50;99.90;;;;;;6123659;23;20385;-63
2021/07/28 06:17:11;;;;;;;13.80;12.30;;;26.60;99.90;;;;;;6122436;23;20444;-64
2021/07/28 06:19:37;;;;;;;15.73;12.50;;;26.60;99.90;;;;;;6120465;23;20706;-64
2021/07/28 06:22:02;;;;;;;16.33;11.83;;;26.70;99.90;;;;;;6124148;23;20414;-64
2021/07/28 06:24:28;;;;;;;16.77;12.93;;;26.80;99.90;;;;;;6123434;23;20144;-64
2021/07/28 06:26:54;;;;;;;18.13;12.60;;;26.80;99.90;;;;;;6120899;23;20196;-68
2021/07/28 06:29:21;;;;;;;18.50;11.93;;;26.90;99.90;;;;;;6125722;23;20183;-64
2021/07/28 06:31:47;;;;;;;15.00;13.43;;;27.00;99.90;;;;;;6150003;23;20190;-68
2021/07/28 06:34:13;;;;;;;16.43;13.93;;;27.00;99.90;;;;;;6127825;23;20701;-64
2021/07/28 06:36:38;;;;;;;16.80;11.80;;;27.10;99.90;;;;;;6126638;23;20753;-68
2021/07/28 06:39:04;;;;;;;17.07;11.70;;;27.20;99.90;;;;;;6126943;23;20192;-68
2021/07/28 06:41:29;;;;;;;16.87;13.50;;;27.30;99.90;;;;;;6127914;23;20223;-68
2021/07/28 06:43:55;;;;;;;17.83;13.10;;;27.30;99.90;;;;;;6127998;23;20219;-64
2021/07/28 06:46:21;;;;;;;18.50;12.77;;;27.40;99.90;;;;;;6126562;23;20551;-68
2021/07/28 06:48:47;;;;;;;16.60;14.10;;;27.40;99.90;;;;;;6125734;23;20200;-68
2021/07/28 06:51:14;;;;;;;17.33;13.13;;;27.50;99.90;;;;;;6124895;23;20488;-64
2021/07/28 06:53:39;;;;;;;14.47;12.97;;;27.50;99.90;;;;;;6125300;23;20458;-64
2021/07/28 06:56:05;;;;;;;18.77;13.87;;;27.60;99.90;;;;;;6124199;23;21001;-64
2021/07/28 06:58:31;;;;;;;17.87;13.67;;;27.70;99.90;;;;;;6125094;23;20495;-64
2021/07/28 07:00:58;;;;;;;18.63;13.33;;;27.70;99.90;;;;;;6123613;23;20160;-64
2021/07/28 07:03:24;;;;;;;14.37;12.43;;;27.80;99.90;;;;;;6125687;23;20171;-64
2021/07/28 07:05:49;;;;;;;17.60;13.00;;;27.90;99.90;;;;;;6124885;23;20394;-68
2021/07/28 07:08:16;;;;;;;17.20;12.77;;;28.00;99.90;;;;;;6121629;23;20479;-68
2021/07/28 07:10:41;;;;;;;18.17;12.53;;;28.10;99.90;;;;;;6122916;23;20165;-64
2021/07/28 07:13:07;;;;;;;17.37;12.33;;;28.20;99.90;;;;;;6125614;23;20400;-64
2021/07/28 07:15:33;;;;;;;18.33;12.63;;;28.30;99.90;;;;;;6127018;23;20164;-64
2021/07/28 07:17:59;;;;;;;13.50;12.10;;;28.40;99.90;;;;;;6125645;23;20178;-68
2021/07/28 07:20:24;;;;;;;18.43;12.17;;;28.50;99.90;;;;;;6126820;23;20904;-65
2021/07/28 07:22:50;;;;;;;17.07;12.50;;;28.70;99.90;;;;;;6127648;23;20189;-65
2021/07/28 07:25:16;;;;;;;17.43;13.17;;;28.80;99.90;;;;;;6127257;23;20590;-68
2021/07/28 07:27:42;;;;;;;13.90;12.50;;;28.90;99.90;;;;;;6124680;23;20305;-65
2021/07/28 07:30:08;;;;;;;14.10;11.40;;;29.00;99.90;;;;;;6122097;23;20212;-69
2021/07/28 07:32:34;;;;;;;19.43;11.73;;;29.20;99.90;;;;;;6126012;23;20502;-65
2021/07/28 07:35:00;;;;;;;12.80;10.47;;;29.30;99.90;;;;;;6121850;23;20448;-68
2021/07/28 07:37:26;;;;;;;17.27;11.53;;;29.40;99.90;;;;;;6124984;23;20689;-69
2021/07/28 07:39:51;;;;;;;12.87;10.67;;;29.50;99.90;;;;;;6123840;23;20639;-65
2021/07/28 07:42:17;;;;;;;15.97;10.83;;;29.60;99.90;;;;;;6127536;23;20417;-65
2021/07/28 07:44:44;;;;;;;12.90;10.97;;;29.70;99.90;;;;;;6126927;23;20164;-67
2021/07/28 07:47:10;;;;;;;15.20;11.87;;;29.80;99.90;;;;;;6126123;23;20594;-65
2021/07/28 07:49:36;;;;;;;16.63;10.77;;;29.90;99.90;;;;;;6125988;23;20381;-68
2021/07/28 07:52:01;;;;;;;13.83;11.37;;;29.90;99.90;;;;;;6126214;23;20177;-65
2021/07/28 07:54:27;;;;;;;12.87;9.97;;;30.00;99.90;;;;;;6124907;23;20174;-65
2021/07/28 07:56:53;;;;;;;12.97;9.20;;;30.20;99.90;;;;;;6125093;23;20175;-71
2021/07/28 07:59:19;;;;;;;16.87;10.77;;;30.30;99.90;;;;;;6124374;23;20175;-70
2021/07/28 08:01:45;;;;;;;14.50;10.90;;;30.40;99.90;;;;;;6123472;23;20552;-65
2021/07/28 08:04:10;;;;;;;14.37;10.00;;;30.50;99.90;;;;;;6125326;23;20416;-65
2021/07/28 08:06:36;;;;;;;12.03;9.90;;;30.60;99.90;;;;;;6121684;23;20177;-66
2021/07/28 08:09:02;;;;;;;15.00;8.90;;;30.60;99.90;;;;;;6122116;23;20200;-65
2021/07/28 08:11:27;;;;;;;14.63;9.70;;;30.70;99.90;;;;;;6124383;23;20540;-69
2021/07/28 08:13:53;;;;;;;14.20;8.40;;;30.80;99.90;;;;;;6123949;23;20174;-65
2021/07/28 08:16:20;;;;;;;13.60;8.73;;;30.90;99.90;;;;;;6125107;23;20174;-65
2021/07/28 08:18:47;;;;;;;14.57;8.73;;;30.90;99.90;;;;;;6123551;23;20199;-65
2021/07/28 08:21:13;;;;;;;10.47;8.73;;;31.00;99.90;;;;;;6123387;23;20732;-69
2021/07/28 08:23:40;;;;;;;10.73;9.20;;;31.10;99.90;;;;;;6123136;23;20380;-65
2021/07/28 08:26:06;;;;;;;13.63;8.80;;;31.00;99.90;;;;;;6126276;23;20515;-65
2021/07/28 08:31:08;;;;;;;10.23;8.53;;;31.10;99.90;;;;;;6129911;23;20521;-93
2021/07/28 08:33:34;;;;;;;11.67;8.57;;;31.20;99.90;;;;;;6148271;23;20443;-94
2021/07/28 08:36:02;;;;;;;15.23;9.10;;;31.10;99.90;;;;;;6117910;23;20391;-91
2021/07/28 08:38:28;;;;;;;11.73;9.13;;;31.10;99.90;;;;;;6119764;23;20230;-94
2021/07/28 08:41:03;;;;;;;9.90;8.90;;;31.10;99.90;;;;;;6122700;23;20389;-92
2021/07/28 08:43:34;;;;;;;12.87;8.90;;;31.10;99.90;;;;;;6125060;23;20412;-96
2021/07/28 08:46:04;;;;;;;19.17;8.90;;;31.10;99.90;;;;;;6121926;23;20397;-95
2021/07/28 08:48:31;;;;;;;10.13;8.23;;;31.20;99.90;;;;;;6121871;23;20463;-92
2021/07/28 08:50:58;;;;;;;13.70;7.40;;;31.20;99.90;;;;;;6139316;23;20385;-95
2021/07/28 08:53:25;;;;;;;11.20;8.37;;;31.20;99.90;;;;;;6127747;23;20405;-91
2021/07/28 08:55:55;;;;;;;13.10;8.60;;;31.20;99.90;;;;;;6126133;23;20394;-93
2021/07/28 08:58:22;;;;;;;13.53;7.80;;;31.20;99.90;;;;;;6131067;23;20874;-93
2021/07/28 09:00:49;;;;;;;10.60;7.57;;;31.20;99.90;;;;;;6128298;23;20380;-92
2021/07/28 09:03:15;;;;;;;9.53;7.13;;;31.30;99.90;;;;;;6128252;23;20464;-94
2021/07/28 09:05:44;;;;;;;9.80;7.73;;;31.30;99.90;;;;;;6121836;23;20499;-91
2021/07/28 09:08:29;;;;;;;11.77;7.50;;;31.30;99.90;;;;;;6122634;23;20437;-92
2021/07/28 09:10:58;;;;;;;12.37;7.57;;;31.40;99.90;;;;;;6132016;23;20420;-93
2021/07/28 09:13:32;;;;;;;8.60;7.50;;;31.40;99.90;;;;;;6128028;23;20456;-95
2021/07/28 09:16:00;;;;;;;7.90;7.20;;;31.50;99.90;;;;;;6125927;23;20382;-95
2021/07/28 09:18:32;;;;;;;10.90;8.40;;;31.60;99.90;;;;;;6130083;23;20409;-96
2021/07/28 09:20:58;;;;;;;12.27;8.20;;;31.60;99.90;;;;;;6127200;23;20374;-95
2021/07/28 09:23:35;;;;;;;14.77;7.77;;;31.70;99.90;;;;;;6126675;23;20414;-96
2021/07/28 09:26:05;;;;;;;9.00;8.00;;;31.70;99.90;;;;;;6125890;23;20870;-93
2021/07/28 09:28:31;;;;;;;11.97;9.10;;;31.70;99.90;;;;;;6125760;23;20457;-94
2021/07/28 09:30:58;;;;;;;10.73;8.23;;;31.80;99.90;;;;;;6125290;23;20381;-92
2021/07/28 09:33:24;;;;;;;10.27;6.43;;;31.80;99.90;;;;;;6129602;23;20394;-93
2021/07/28 09:35:50;;;;;;;12.73;7.67;;;31.90;99.90;;;;;;6132681;23;20386;-95
2021/07/28 09:38:33;;;;;;;9.83;7.80;;;32.00;99.90;;;;;;6127153;23;20390;-89
2021/07/28 09:41:21;;;;;;;8.77;7.97;;;32.10;99.90;;;;;;6126600;23;20156;-92
2021/07/28 09:43:58;;;;;;;14.33;8.70;;;32.10;99.90;;;;;;6126446;23;20436;-95
2021/07/28 09:46:35;;;;;;;12.23;9.23;;;32.20;99.90;;;;;;6126472;23;20995;-94
2021/07/28 09:49:17;;;;;;;11.50;8.73;;;32.20;99.90;;;;;;6131280;23;20452;-95
2021/07/28 09:51:45;;;;;;;13.27;8.20;;;32.30;99.90;;;;;;6129470;23;20417;-94
2021/07/28 09:54:13;;;;;;;10.67;7.70;;;32.40;99.90;;;;;;6126190;23;20457;-94
2021/07/28 09:56:50;;;;;;;8.57;7.67;;;32.50;99.90;;;;;;6132752;23;20405;-93
2021/07/28 09:59:18;;;;;;;9.37;7.50;;;32.60;99.90;;;;;;6128963;23;20915;-92
2021/07/28 10:01:45;;;;;;;8.10;7.30;;;32.70;99.90;;;;;;6125036;23;20390;-94
2021/07/28 10:04:12;;;;;;;7.10;6.30;;;32.80;99.90;;;;;;6122613;23;20425;-91
2021/07/28 10:06:52;;;;;;;6.87;6.20;;;32.90;99.90;;;;;;6124741;23;20378;-92
2021/07/28 10:09:22;;;;;;;9.57;6.97;;;33.00;99.90;;;;;;6125367;23;20457;-92
2021/07/28 10:11:50;;;;;;;9.20;6.80;;;33.10;99.90;;;;;;6119437;23;20388;-94
2021/07/28 10:14:20;;;;;;;10.60;7.63;;;33.10;99.90;;;;;;6127140;23;20428;-93
2021/07/28 10:16:47;;;;;;;8.33;6.10;;;33.20;99.90;;;;;;6127369;23;20377;-95
2021/07/28 10:19:14;;;;;;;12.93;7.50;;;33.30;99.90;;;;;;6127640;23;20413;-94
2021/07/28 10:21:42;;;;;;;7.80;5.77;;;33.40;99.90;;;;;;6129911;23;20866;-93
2021/07/28 10:24:12;;;;;;;5.30;4.80;;;33.50;99.90;;;;;;6139751;23;20426;-95
2021/07/28 10:26:48;;;;;;;9.70;5.63;;;33.50;97.30;;;;;;6127983;23;20370;-90
2021/07/28 10:29:18;;;;;;;8.33;6.17;;;33.60;98.00;;;;;;6124860;23;20845;-91
2021/07/28 10:31:48;;;;;;;7.30;6.60;;;33.70;98.50;;;;;;6123573;23;20385;-90
2021/07/28 10:34:22;;;;;;;7.40;5.60;;;33.80;99.10;;;;;;6122778;23;20553;-90
2021/07/28 10:36:48;;;;;;;11.63;5.90;;;33.90;97.30;;;;;;6123112;23;20394;-95
2021/07/28 10:39:45;;;;;;;9.30;6.57;;;34.00;96.60;;;;;;6122994;23;20421;-92
2021/07/28 10:42:42;;;;;;;6.90;5.13;;;34.00;96.30;;;;;;6119619;23;20916;-93
2021/07/28 10:45:09;;;;;;;9.00;6.60;;;34.10;94.50;;;;;;6124833;23;20501;-92
2021/07/28 10:47:53;;;;;;;9.60;6.23;;;34.10;95.80;;;;;;6126879;23;20445;-93
2021/07/28 10:50:22;;;;;;;7.60;5.80;;;34.20;96.00;;;;;;6126651;23;20421;-93
2021/07/28 10:52:50;;;;;;;8.20;6.33;;;34.20;96.60;;;;;;6135053;23;20383;-93
2021/07/28 10:55:23;;;;;;;7.63;5.87;;;34.30;96.10;;;;;;6139665;23;20430;-91
2021/07/28 10:57:48;;;;;;;8.53;5.63;;;34.40;95.70;;;;;;6140154;23;20406;-93
2021/07/28 11:00:40;;;;;;;9.17;4.50;;;34.50;95.80;;;;;;6130854;23;20974;-94
2021/07/28 11:03:09;;;;;;;7.63;5.67;;;34.60;94.40;;;;;;6133004;23;20156;-94
2021/07/28 11:05:40;;;;;;;5.07;4.67;;;34.60;92.70;;;;;;6124581;23;20460;-94
2021/07/28 11:08:06;;;;;;;8.50;5.63;;;34.70;93.10;;;;;;6125078;23;20441;-91
2021/07/28 11:10:34;;;;;;;7.10;5.40;;;34.80;93.30;;;;;;6126382;23;20864;-94
2021/07/28 11:13:05;;;;;;;7.77;5.80;;;34.80;92.20;;;;;;6125634;23;20160;-92
2021/07/28 11:15:31;;;;;;;4.60;4.20;;;34.90;92.40;;;;;;6125703;23;20776;-91
2021/07/28 11:17:57;;;;;;;8.07;4.47;;;34.90;91.10;;;;;;6131734;23;20381;-91
2021/07/28 11:20:27;;;;;;;8.33;5.03;;;35.00;89.10;;;;;;6136297;23;20286;-95
2021/07/28 11:22:53;;;;;;;6.43;5.07;;;35.00;90.20;;;;;;6133617;23;20398;-91
2021/07/28 11:25:18;;;;;;;6.13;5.27;;;35.10;91.00;;;;;;6129202;23;20760;-93
2021/07/28 11:28:05;;;;;;;6.60;4.40;;;35.10;91.40;;;;;;6133575;23;20192;-92
2021/07/28 11:30:30;;;;;;;7.90;5.27;;;35.20;90.90;;;;;;6140880;23;20191;-88
2021/07/28 11:33:12;;;;;;;7.13;5.57;;;35.20;89.90;;;;;;6129487;23;20382;-91
2021/07/28 11:35:48;;;;;;;7.60;5.50;;;35.20;90.10;;;;;;6132738;23;20212;-90
2021/07/28 11:38:25;;;;;;;9.00;6.10;;;35.30;90.40;;;;;;6127077;23;20389;-91
2021/07/28 11:40:57;;;;;;;8.90;5.30;;;35.40;90.30;;;;;;6129860;23;20397;-91
2021/07/28 11:43:31;;;;;;;10.13;5.80;;;35.50;90.60;;;;;;6126176;23;20374;-89
2021/07/28 11:46:21;;;;;;;9.73;5.90;;;35.60;90.60;;;;;;6127724;23;20378;-93
2021/07/28 11:48:55;;;;;;;9.33;6.20;;;35.60;90.20;;;;;;6126049;23;20446;-94
2021/07/28 11:51:31;;;;;;;5.53;4.93;;;35.70;88.50;;;;;;6125282;23;20402;-90
2021/07/28 11:54:17;;;;;;;7.93;5.57;;;35.70;88.70;;;;;;6125000;23;20497;-91
2021/07/28 11:56:48;;;;;;;11.70;6.00;;;35.80;86.00;;;;;;6123419;23;20410;-90
2021/07/28 11:59:22;;;;;;;6.77;4.70;;;35.80;85.30;;;;;;6124953;23;20397;-91
2021/07/28 12:01:50;;;;;;;8.00;5.10;;;35.90;83.60;;;;;;6125192;23;20394;-93
2021/07/28 12:04:27;;;;;;;7.03;5.03;;;35.90;81.50;;;;;;6134433;23;20408;-92
2021/07/28 12:06:53;;;;;;;6.90;5.63;;;36.00;81.30;;;;;;6137014;23;20796;-93
2021/07/28 12:09:27;;;;;;;7.40;5.03;;;36.00;81.80;;;;;;6125522;23;20477;-92
2021/07/28 12:12:21;;;;;;;6.90;5.00;;;36.10;80.50;;;;;;6125900;23;20417;-92
2021/07/28 12:14:49;;;;;;;6.90;4.83;;;36.10;82.00;;;;;;6125467;23;20418;-92
2021/07/28 12:17:17;;;;;;;8.53;5.60;;;36.20;81.60;;;;;;6129156;23;20758;-94
2021/07/28 12:20:14;;;;;;;7.70;4.90;;;36.20;81.50;;;;;;6126268;23;20401;-94
2021/07/28 12:22:41;;;;;;;10.47;6.30;;;36.20;81.80;;;;;;6123698;23;20391;-92
2021/07/28 12:25:17;;;;;;;13.77;6.57;;;36.20;82.50;;;;;;6123163;23;20458;-93
2021/07/28 12:27:55;;;;;;;6.80;5.57;;;36.30;83.00;;;;;;6124501;23;20425;-93
2021/07/28 12:30:33;;;;;;;8.30;5.37;;;36.30;80.60;;;;;;6124712;23;20899;-89
2021/07/28 12:33:03;;;;;;;9.27;5.87;;;36.30;81.40;;;;;;6126210;23;20382;-94
2021/07/28 12:35:32;;;;;;;9.03;5.43;;;36.30;81.30;;;;;;6123895;23;20567;-91
2021/07/28 12:38:24;;;;;;;9.53;5.93;;;36.30;81.00;;;;;;6133387;23;20852;-93
2021/07/28 12:41:02;;;;;;;6.10;5.27;;;36.30;80.50;;;;;;6139088;23;20864;-91
2021/07/28 12:43:37;;;;;;;6.73;6.03;;;36.30;81.90;;;;;;6125302;23;20432;-92
2021/07/28 12:46:09;;;;;;;6.53;5.80;;;36.40;81.30;;;;;;6126233;23;20389;-92
2021/07/28 12:48:37;;;;;;;8.07;5.17;;;36.40;81.30;;;;;;6124060;23;20437;-92